sensor_id;sensor_type;location;lat;lon;timestamp;temperature;humidity
67165;SHT31;54093;50.014;19.984;2022-07-23T00:08:14;22.55;70.01
67165;SHT31;54093;50.014;19.984;2022-07-23T00:17:35;22.39;70.59
67165;SHT31;54093;50.014;19.984;2022-07-23T00:26:55;22.23;70.81
67165;SHT31;54093;50.014;19.984;2022-07-23T00:36:16;21.99;71.13
67165;SHT31;54093;50.014;19.984;2022-07-23T00:45:37;21.96;71.34
67165;SHT31;54093;50.014;19.984;2022-07-23T00:54:58;21.85;71.59
67165;SHT31;54093;50.014;19.984;2022-07-23T01:04:19;21.86;70.71
67165;SHT31;54093;50.014;19.984;2022-07-23T01:13:42;21.86;70.26
67165;SHT31;54093;50.014;19.984;2022-07-23T01:23:03;21.93;69.61
67165;SHT31;54093;50.014;19.984;2022-07-23T01:32:23;21.66;70.72
67165;SHT31;54093;50.014;19.984;2022-07-23T01:41:44;21.47;71.27
67165;SHT31;54093;50.014;19.984;2022-07-23T01:51:05;21.34;71.54
67165;SHT31;54093;50.014;19.984;2022-07-23T02:00:26;21.49;70.52
67165;SHT31;54093;50.014;19.984;2022-07-23T02:09:46;21.47;70.64
67165;SHT31;54093;50.014;19.984;2022-07-23T02:19:07;21.28;71.03
67165;SHT31;54093;50.014;19.984;2022-07-23T02:28:28;21.07;71.60
67165;SHT31;54093;50.014;19.984;2022-07-23T02:37:49;20.94;71.92
67165;SHT31;54093;50.014;19.984;2022-07-23T02:47:10;20.86;71.66
67165;SHT31;54093;50.014;19.984;2022-07-23T02:56:30;20.80;72.30
67165;SHT31;54093;50.014;19.984;2022-07-23T03:05:51;20.66;72.14
67165;SHT31;54093;50.014;19.984;2022-07-23T03:15:12;20.56;72.37
67165;SHT31;54093;50.014;19.984;2022-07-23T03:24:32;20.81;71.35
67165;SHT31;54093;50.014;19.984;2022-07-23T03:34:12;20.97;71.08
67165;SHT31;54093;50.014;19.984;2022-07-23T03:43:33;20.96;71.40
67165;SHT31;54093;50.014;19.984;2022-07-23T03:52:53;20.83;72.68
67165;SHT31;54093;50.014;19.984;2022-07-23T04:02:14;20.69;73.58
67165;SHT31;54093;50.014;19.984;2022-07-23T04:11:35;20.83;73.36
67165;SHT31;54093;50.014;19.984;2022-07-23T04:20:56;20.84;73.54
67165;SHT31;54093;50.014;19.984;2022-07-23T04:30:17;20.94;73.37
67165;SHT31;54093;50.014;19.984;2022-07-23T04:39:37;21.21;72.73
67165;SHT31;54093;50.014;19.984;2022-07-23T04:48:58;21.31;73.15
67165;SHT31;54093;50.014;19.984;2022-07-23T04:58:19;21.47;75.16
67165;SHT31;54093;50.014;19.984;2022-07-23T05:07:40;21.69;72.96
67165;SHT31;54093;50.014;19.984;2022-07-23T05:17:01;21.88;71.53
67165;SHT31;54093;50.014;19.984;2022-07-23T05:26:22;22.03;71.56
67165;SHT31;54093;50.014;19.984;2022-07-23T05:35:42;22.29;70.88
67165;SHT31;54093;50.014;19.984;2022-07-23T05:45:04;22.82;69.92
67165;SHT31;54093;50.014;19.984;2022-07-23T05:54:25;23.19;68.51
67165;SHT31;54093;50.014;19.984;2022-07-23T06:03:45;23.39;69.21
67165;SHT31;54093;50.014;19.984;2022-07-23T06:13:06;23.67;69.12
67165;SHT31;54093;50.014;19.984;2022-07-23T06:22:27;23.96;67.71
67165;SHT31;54093;50.014;19.984;2022-07-23T06:31:48;24.24;67.40
67165;SHT31;54093;50.014;19.984;2022-07-23T06:41:09;24.73;63.15
67165;SHT31;54093;50.014;19.984;2022-07-23T06:50:29;25.38;62.60
67165;SHT31;54093;50.014;19.984;2022-07-23T06:59:50;25.85;62.47
67165;SHT31;54093;50.014;19.984;2022-07-23T07:09:11;27.03;60.68
67165;SHT31;54093;50.014;19.984;2022-07-23T07:18:32;28.50;58.25
67165;SHT31;54093;50.014;19.984;2022-07-23T07:27:52;29.80;53.82
67165;SHT31;54093;50.014;19.984;2022-07-23T07:37:13;30.82;49.76
67165;SHT31;54093;50.014;19.984;2022-07-23T07:46:34;31.71;47.91
67165;SHT31;54093;50.014;19.984;2022-07-23T07:55:55;32.09;45.94
67165;SHT31;54093;50.014;19.984;2022-07-23T08:05:20;32.67;46.56
67165;SHT31;54093;50.014;19.984;2022-07-23T08:14:41;33.10;44.36
67165;SHT31;54093;50.014;19.984;2022-07-23T08:24:02;33.41;45.99
67165;SHT31;54093;50.014;19.984;2022-07-23T08:33:23;34.36;40.86
67165;SHT31;54093;50.014;19.984;2022-07-23T08:42:47;34.95;42.52
67165;SHT31;54093;50.014;19.984;2022-07-23T08:52:08;35.46;40.41
67165;SHT31;54093;50.014;19.984;2022-07-23T09:01:29;35.54;40.10
67165;SHT31;54093;50.014;19.984;2022-07-23T09:11:00;35.43;37.83
67165;SHT31;54093;50.014;19.984;2022-07-23T09:20:21;34.43;41.16
67165;SHT31;54093;50.014;19.984;2022-07-23T09:29:55;35.38;38.78
67165;SHT31;54093;50.014;19.984;2022-07-23T09:39:25;35.33;39.36
67165;SHT31;54093;50.014;19.984;2022-07-23T09:48:47;36.48;37.68
67165;SHT31;54093;50.014;19.984;2022-07-23T09:58:08;35.04;38.57
67165;SHT31;54093;50.014;19.984;2022-07-23T10:07:37;34.87;39.31
67165;SHT31;54093;50.014;19.984;2022-07-23T10:16:58;36.07;38.92
67165;SHT31;54093;50.014;19.984;2022-07-23T10:26:52;35.90;36.01
67165;SHT31;54093;50.014;19.984;2022-07-23T10:36:27;35.67;31.82
67165;SHT31;54093;50.014;19.984;2022-07-23T10:45:50;36.21;32.55
67165;SHT31;54093;50.014;19.984;2022-07-23T11:04:51;36.37;34.36
67165;SHT31;54093;50.014;19.984;2022-07-23T11:14:12;36.07;33.50
67165;SHT31;54093;50.014;19.984;2022-07-23T11:24:11;35.47;32.02
67165;SHT31;54093;50.014;19.984;2022-07-23T11:33:33;35.32;32.04
67165;SHT31;54093;50.014;19.984;2022-07-23T11:42:57;36.01;33.72
67165;SHT31;54093;50.014;19.984;2022-07-23T11:52:18;36.78;31.03
67165;SHT31;54093;50.014;19.984;2022-07-23T12:01:56;36.85;31.10
67165;SHT31;54093;50.014;19.984;2022-07-23T12:11:16;36.74;30.70
67165;SHT31;54093;50.014;19.984;2022-07-23T12:20:46;36.87;30.30
67165;SHT31;54093;50.014;19.984;2022-07-23T12:30:23;36.52;29.01
67165;SHT31;54093;50.014;19.984;2022-07-23T12:39:45;36.49;30.35
67165;SHT31;54093;50.014;19.984;2022-07-23T12:49:05;36.74;31.25
67165;SHT31;54093;50.014;19.984;2022-07-23T12:58:26;36.74;28.47
67165;SHT31;54093;50.014;19.984;2022-07-23T13:07:47;37.02;29.25
67165;SHT31;54093;50.014;19.984;2022-07-23T13:17:08;36.85;29.68
67165;SHT31;54093;50.014;19.984;2022-07-23T13:26:29;36.53;30.62
67165;SHT31;54093;50.014;19.984;2022-07-23T13:35:51;36.72;31.14
67165;SHT31;54093;50.014;19.984;2022-07-23T13:45:11;36.12;31.42
67165;SHT31;54093;50.014;19.984;2022-07-23T13:54:32;35.60;31.90
67165;SHT31;54093;50.014;19.984;2022-07-23T14:03:53;35.38;31.37
67165;SHT31;54093;50.014;19.984;2022-07-23T14:13:14;35.15;37.31
67165;SHT31;54093;50.014;19.984;2022-07-23T14:22:35;34.48;34.26
67165;SHT31;54093;50.014;19.984;2022-07-23T14:31:56;34.27;37.85
67165;SHT31;54093;50.014;19.984;2022-07-23T14:41:17;33.88;39.67
67165;SHT31;54093;50.014;19.984;2022-07-23T14:50:38;33.21;35.10
67165;SHT31;54093;50.014;19.984;2022-07-23T14:59:59;32.96;36.47
67165;SHT31;54093;50.014;19.984;2022-07-23T15:09:20;32.40;36.49
67165;SHT31;54093;50.014;19.984;2022-07-23T15:18:41;28.63;59.33
67165;SHT31;54093;50.014;19.984;2022-07-23T15:28:02;25.76;64.76
67165;SHT31;54093;50.014;19.984;2022-07-23T15:37:23;25.07;66.81
67165;SHT31;54093;50.014;19.984;2022-07-23T15:46:43;24.91;67.30
67165;SHT31;54093;50.014;19.984;2022-07-23T15:56:06;24.87;67.99
67165;SHT31;54093;50.014;19.984;2022-07-23T16:05:27;24.98;70.71
67165;SHT31;54093;50.014;19.984;2022-07-23T16:14:48;24.73;72.92
67165;SHT31;54093;50.014;19.984;2022-07-23T16:24:08;25.00;72.83
67165;SHT31;54093;50.014;19.984;2022-07-23T16:33:29;24.98;73.21
67165;SHT31;54093;50.014;19.984;2022-07-23T16:42:50;25.17;72.40
67165;SHT31;54093;50.014;19.984;2022-07-23T16:52:11;25.08;74.91
67165;SHT31;54093;50.014;19.984;2022-07-23T17:01:31;25.21;73.68
67165;SHT31;54093;50.014;19.984;2022-07-23T17:10:52;25.18;73.17
67165;SHT31;54093;50.014;19.984;2022-07-23T17:20:13;25.00;73.36
67165;SHT31;54093;50.014;19.984;2022-07-23T17:29:34;24.67;72.93
67165;SHT31;54093;50.014;19.984;2022-07-23T17:38:55;24.60;71.15
67165;SHT31;54093;50.014;19.984;2022-07-23T17:48:16;24.63;74.73
67165;SHT31;54093;50.014;19.984;2022-07-23T17:57:36;24.29;75.39
67165;SHT31;54093;50.014;19.984;2022-07-23T18:06:57;24.36;75.26
67165;SHT31;54093;50.014;19.984;2022-07-23T18:16:18;24.39;75.31
67165;SHT31;54093;50.014;19.984;2022-07-23T18:25:39;23.93;76.57
67165;SHT31;54093;50.014;19.984;2022-07-23T18:34:59;23.63;76.30
67165;SHT31;54093;50.014;19.984;2022-07-23T18:44:20;23.57;77.52
67165;SHT31;54093;50.014;19.984;2022-07-23T18:53:41;23.77;77.31
67165;SHT31;54093;50.014;19.984;2022-07-23T19:03:02;23.82;76.73
67165;SHT31;54093;50.014;19.984;2022-07-23T19:12:23;23.60;78.75
67165;SHT31;54093;50.014;19.984;2022-07-23T19:21:44;23.45;78.89
67165;SHT31;54093;50.014;19.984;2022-07-23T19:31:05;23.38;78.87
67165;SHT31;54093;50.014;19.984;2022-07-23T19:40:26;23.43;78.21
67165;SHT31;54093;50.014;19.984;2022-07-23T19:49:47;23.09;79.08
67165;SHT31;54093;50.014;19.984;2022-07-23T19:59:07;22.90;79.65
67165;SHT31;54093;50.014;19.984;2022-07-23T20:08:28;22.98;78.85
67165;SHT31;54093;50.014;19.984;2022-07-23T20:17:49;23.03;79.88
67165;SHT31;54093;50.014;19.984;2022-07-23T20:27:10;22.99;79.22
67165;SHT31;54093;50.014;19.984;2022-07-23T20:36:30;22.96;78.32
67165;SHT31;54093;50.014;19.984;2022-07-23T20:45:51;22.99;78.46
67165;SHT31;54093;50.014;19.984;2022-07-23T20:55:13;22.82;78.56
67165;SHT31;54093;50.014;19.984;2022-07-23T21:04:34;22.90;78.94
67165;SHT31;54093;50.014;19.984;2022-07-23T21:13:54;22.75;79.22
67165;SHT31;54093;50.014;19.984;2022-07-23T21:23:15;22.67;79.38
67165;SHT31;54093;50.014;19.984;2022-07-23T21:32:37;22.69;79.20
67165;SHT31;54093;50.014;19.984;2022-07-23T21:41:58;22.69;78.82
67165;SHT31;54093;50.014;19.984;2022-07-23T21:51:19;22.45;79.55
67165;SHT31;54093;50.014;19.984;2022-07-23T22:00:40;22.29;80.49
67165;SHT31;54093;50.014;19.984;2022-07-23T22:10:01;22.39;79.79
67165;SHT31;54093;50.014;19.984;2022-07-23T22:19:22;22.40;80.44
67165;SHT31;54093;50.014;19.984;2022-07-23T22:28:43;22.33;80.52
67165;SHT31;54093;50.014;19.984;2022-07-23T22:38:03;22.40;80.50
67165;SHT31;54093;50.014;19.984;2022-07-23T22:47:24;22.30;80.99
67165;SHT31;54093;50.014;19.984;2022-07-23T22:56:45;22.30;81.02
67165;SHT31;54093;50.014;19.984;2022-07-23T23:06:06;22.33;80.22
67165;SHT31;54093;50.014;19.984;2022-07-23T23:15:27;22.24;80.68
67165;SHT31;54093;50.014;19.984;2022-07-23T23:24:47;22.18;80.66
67165;SHT31;54093;50.014;19.984;2022-07-23T23:34:08;21.85;81.75
67165;SHT31;54093;50.014;19.984;2022-07-23T23:43:29;21.61;82.39
67165;SHT31;54093;50.014;19.984;2022-07-23T23:52:50;21.30;84.20
